EST,Max TemperatureF,Mean TemperatureF,Min TemperatureF,Max Dew PointF,MeanDew PointF,Min DewpointF,Max Humidity, Mean Humidity, Min Humidity, Max Sea Level PressureIn, Mean Sea Level PressureIn, Min Sea Level PressureIn, Max VisibilityMiles, Mean VisibilityMiles, Min VisibilityMiles, Max Wind SpeedMPH, Mean Wind SpeedMPH, Max Gust SpeedMPH,PrecipitationIn, CloudCover, Events, WindDirDegrees
2011-12-1,44,37,30,27,21,12,70,56,29,30.32,30.12,29.93,10,10,10,14,8,24,0.00,1,,338
2011-12-2,48,36,24,28,24,18,86,64,42,30.50,30.35,30.27,10,10,10,12,4,20,0.00,1,,313
2011-12-3,44,35,26,27,24,19,86,69,37,30.68,30.60,30.51,10,10,10,12,5,,0.00,0,,347
2011-12-4,50,39,28,45,35,25,93,82,62,30.61,30.52,30.43,10,9,1,12,2,21,0.00,7,,217
2011-12-5,53,48,44,48,46,43,100,91,76,30.42,30.34,30.24,10,2,0,9,2,,0.00,7,Fog,202
2011-12-6,57,52,50,55,52,48,100,93,88,30.22,30.08,29.94,10,3,0,12,6,18,0.01,8,Fog-Rain,213
2011-12-7,57,50,42,55,50,37,100,93,81,29.93,29.74,29.47,10,2,0,18,4,29,1.32,8,Fog-Rain,22
2011-12-8,39,34,30,36,26,21,87,70,49,30.31,29.92,29.40,10,9,2,30,15,40,0.00,4,,312
2011-12-9,46,36,26,39,29,23,93,76,46,30.36,30.28,30.21,10,10,10,12,3,21,0.00,3,,243
2011-12-10,39,31,23,34,22,3,87,64,34,30.48,30.29,30.17,10,10,8,13,3,21,0.00,2,,342
2011-12-11,35,27,19,14,11,9,80,54,38,30.63,30.57,30.48,10,10,10,5,2,,0.00,0,,300
2011-12-12,39,32,24,18,15,10,69,54,33,30.61,30.52,30.43,10,10,10,7,3,,0.00,0,,247
2011-12-13,42,30,19,27,16,10,75,58,34,30.42,30.37,30.30,10,10,10,14,3,,0.00,0,,346
2011-12-14,44,36,28,34,29,23,87,75,53,30.41,30.36,30.32,10,10,5,9,7,,0.00,4,,47
2011-12-15,50,44,39,45,38,34,87,77,66,30.31,30.13,29.82,10,9,5,17,9,29,0.00,8,Rain,198
2011-12-16,46,40,33,27,24,21,70,55,42,30.13,30.07,29.86,10,10,10,15,10,34,0.00,2,,321
2011-12-17,37,30,23,25,18,7,80,61,43,30.15,30.10,30.06,10,10,10,16,4,24,0.00,1,,351
2011-12-18,26,19,12,9,5,-2,73,55,29,30.32,30.22,30.14,10,10,10,14,7,20,0.00,0,,351
2011-12-19,42,27,12,28,16,3,79,62,45,30.28,30.12,29.93,10,10,8,14,3,25,0.00,3,,239
2011-12-20,44,38,32,34,24,16,70,56,41,30.22,30.10,29.93,10,10,5,14,7,22,0.00,5,,306
2011-12-21,53,45,37,52,38,19,94,79,48,30.18,29.97,29.69,10,6,0,12,6,24,0.16,8,Fog-Rain-Thunderstorm,196
2011-12-22,53,48,42,46,39,34,82,69,47,30.12,29.97,29.72,10,10,10,14,8,29,0.00,4,,273
2011-12-23,44,37,30,39,34,19,87,78,57,30.21,29.99,29.85,10,8,2,16,6,24,0.36,6,Rain,9
2011-12-24,30,24,15,18,12,3,74,59,37,30.47,30.35,30.20,10,10,10,13,8,17,0.00,0,,2
2011-12-25,41,29,17,30,19,7,79,66,56,30.44,30.22,29.90,10,10,10,9,4,20,0.00,5,,166
2011-12-26,39,32,24,30,24,18,81,66,42,30.29,30.07,29.88,10,10,10,25,7,37,0.00,3,,312
2011-12-27,55,40,26,54,33,19,94,80,65,30.22,29.90,29.33,10,8,2,25,6,41,0.30,3,Rain,201
2011-12-28,51,38,24,48,27,10,88,64,51,29.78,29.50,29.34,10,10,10,20,9,33,0.00,5,,277
2011-12-29,28,22,17,12,8,5,63,51,37,30.03,29.92,29.78,10,10,10,12,8,22,0.00,2,,288
2011-12-30,46,36,26,37,26,12,87,69,50,30.06,30.03,30.00,10,10,10,8,2,,0.00,6,,145
2011-12-31,44,40,37,41,37,34,100,89,81,30.00,29.92,29.83,10,5,0,8,4,,0.00,4,Fog,75